createdAt,value
2022-09-01T00:02:16.960Z,1.55
2022-09-01T00:04:45.160Z,1.50
2022-09-01T00:07:13.680Z,1.40
2022-09-01T00:09:40.921Z,1.40
2022-09-01T00:12:09.672Z,1.65
2022-09-01T00:14:41.582Z,1.58
2022-09-01T00:17:10.751Z,1.33
2022-09-01T00:19:39.515Z,1.65
2022-09-01T00:22:06.931Z,1.50
2022-09-01T00:24:33.552Z,1.58
2022-09-01T00:27:00.135Z,1.48
2022-09-01T00:29:27.291Z,1.38
2022-09-01T00:31:54.320Z,1.70
2022-09-01T00:34:21.808Z,1.50
2022-09-01T00:36:49.959Z,1.70
2022-09-01T00:39:16.719Z,1.67
2022-09-01T00:41:44.918Z,1.58
2022-09-01T00:44:15.241Z,1.70
2022-09-01T00:46:54.899Z,1.73
2022-09-01T00:49:39.231Z,1.30
2022-09-01T00:52:35.247Z,1.70
2022-09-01T00:55:10.953Z,1.73
2022-09-01T00:57:37.823Z,2.03
2022-09-01T01:00:11.489Z,1.70
2022-09-01T01:02:40.413Z,1.23
2022-09-01T01:05:08.055Z,1.20
2022-09-01T01:07:42.321Z,1.70
2022-09-01T01:10:14.768Z,1.85
2022-09-01T01:12:43.105Z,1.63
2022-09-01T01:15:11.844Z,1.50
2022-09-01T01:17:39.128Z,1.90
2022-09-01T01:20:26.996Z,1.65
2022-09-01T01:23:20.825Z,1.70
2022-09-01T01:25:57.432Z,1.57
2022-09-01T01:28:24.507Z,1.50
2022-09-01T01:30:54.422Z,1.92
2022-09-01T01:33:23.805Z,1.80
2022-09-01T01:35:52.633Z,1.70
2022-09-01T01:38:22.568Z,1.70
2022-09-01T01:40:50.298Z,1.52
2022-09-01T01:43:19.976Z,1.60
2022-09-01T01:45:51.868Z,1.80
2022-09-01T01:48:23.827Z,1.77
2022-09-01T01:50:55.058Z,1.70
2022-09-01T01:53:22.242Z,1.70
2022-09-01T01:55:49.564Z,1.88
2022-09-01T01:58:19.667Z,1.38
2022-09-01T02:00:48.307Z,1.75
2022-09-01T02:03:24.931Z,2.00
2022-09-01T02:05:53.731Z,1.63
2022-09-01T02:08:25.825Z,1.60
2022-09-01T02:10:54.160Z,1.77
2022-09-01T02:13:31.122Z,1.67
2022-09-01T02:16:07.507Z,1.50
2022-09-01T02:18:38.110Z,1.60
2022-09-01T02:21:15.192Z,1.70
2022-09-01T02:23:43.159Z,1.60
2022-09-01T02:26:16.627Z,1.63
2022-09-01T02:28:50.922Z,1.50
2022-09-01T02:31:20.940Z,1.65
2022-09-01T02:33:48.568Z,1.80
2022-09-01T02:36:17.220Z,2.08
2022-09-01T02:38:46.064Z,1.80
2022-09-01T02:41:14.707Z,1.80
2022-09-01T02:43:46.134Z,1.80
2022-09-01T02:46:14.654Z,1.70
2022-09-01T02:48:46.004Z,1.60
2022-09-01T02:51:16.534Z,1.60
2022-09-01T02:53:46.611Z,2.00
2022-09-01T02:56:14.489Z,1.60
2022-09-01T02:58:48.326Z,1.60
2022-09-01T03:01:24.401Z,1.65
2022-09-01T03:03:55.316Z,1.75
2022-09-01T03:06:24.133Z,1.70
2022-09-01T03:08:53.469Z,1.75
2022-09-01T03:11:21.629Z,1.67
2022-09-01T03:13:48.360Z,1.90
2022-09-01T03:16:16.065Z,1.88
2022-09-01T03:18:45.711Z,1.80
2022-09-01T03:21:17.025Z,1.50
2022-09-01T03:23:45.504Z,1.67
2022-09-01T03:26:12.918Z,1.92
2022-09-01T03:28:40.347Z,1.83
2022-09-01T03:31:07.339Z,1.50
2022-09-01T03:33:34.382Z,2.00
2022-09-01T03:36:01.153Z,2.10
2022-09-01T03:38:28.611Z,1.55
2022-09-01T03:41:01.945Z,2.10
2022-09-01T03:43:35.261Z,2.07
2022-09-01T03:46:03.175Z,1.48
2022-09-01T03:48:31.510Z,1.90
2022-09-01T03:51:03.057Z,1.70
2022-09-01T03:53:33.608Z,2.13
2022-09-01T03:56:01.481Z,1.80
2022-09-01T03:58:28.536Z,1.70
2022-09-01T04:00:58.309Z,1.80
2022-09-01T04:03:31.116Z,1.90
2022-09-01T04:06:00.483Z,1.80
2022-09-01T04:08:32.652Z,1.70
2022-09-01T04:11:03.683Z,1.83
2022-09-01T04:13:36.227Z,1.73
2022-09-01T04:16:03.700Z,1.80
2022-09-01T04:18:30.530Z,2.45
2022-09-01T04:20:59.385Z,1.60
2022-09-01T04:23:34.700Z,1.75
2022-09-01T04:26:10.442Z,2.17
2022-09-01T04:28:46.997Z,1.90
2022-09-01T04:31:18.934Z,1.88
2022-09-01T04:33:47.647Z,1.90
2022-09-01T04:36:23.622Z,1.90
2022-09-01T04:38:56.086Z,2.10
2022-09-01T04:41:25.612Z,1.80
2022-09-01T04:43:56.411Z,2.00
2022-09-01T04:46:25.950Z,1.90
2022-09-01T04:48:53.315Z,1.52
2022-09-01T04:51:20.830Z,1.80
2022-09-01T04:53:48.845Z,2.08
2022-09-01T04:56:19.387Z,1.70
2022-09-01T04:58:47.785Z,1.43
2022-09-01T05:01:17.443Z,1.90
2022-09-01T05:03:45.261Z,1.83
2022-09-01T05:06:20.326Z,1.55
2022-09-01T05:08:47.096Z,1.70
2022-09-01T05:11:16.790Z,1.67
2022-09-01T05:13:45.388Z,1.85
2022-09-01T05:16:15.647Z,1.90
2022-09-01T05:18:46.063Z,1.83
2022-09-01T05:21:16.295Z,1.90
2022-09-01T05:23:45.064Z,1.80
2022-09-01T05:26:17.958Z,2.22
2022-09-01T05:28:46.751Z,1.98
2022-09-01T05:31:13.897Z,1.70
2022-09-01T05:33:45.956Z,1.90
2022-09-01T05:36:15.476Z,2.10
2022-09-01T05:38:42.253Z,1.85
2022-09-01T05:41:15.005Z,1.65
2022-09-01T05:43:46.543Z,1.70
2022-09-01T05:46:17.409Z,1.80
2022-09-01T05:48:45.500Z,1.57
2022-09-01T05:51:40.358Z,1.73
2022-09-01T05:54:03.428Z,1.90
2022-09-01T05:56:31.317Z,2.38
2022-09-01T06:01:50.434Z,2.20
2022-09-01T06:04:17.701Z,1.75
2022-09-01T06:07:06.706Z,1.83
2022-09-01T06:09:41.483Z,1.70
2022-09-01T06:12:17.517Z,1.85
2022-09-01T06:14:49.499Z,1.60
2022-09-01T06:17:19.424Z,1.52
2022-09-01T06:19:46.665Z,1.63
2022-09-01T06:22:13.453Z,1.70
2022-09-01T06:24:53.815Z,1.80
2022-09-01T06:27:22.716Z,1.90
2022-09-01T06:29:56.151Z,1.45
2022-09-01T06:32:25.620Z,2.05
2022-09-01T06:34:52.219Z,1.75
2022-09-01T06:37:22.774Z,2.22
2022-09-01T06:39:50.624Z,1.70
2022-09-01T06:42:17.675Z,1.50
2022-09-01T06:44:45.879Z,1.70
2022-09-01T06:47:12.569Z,1.75
2022-09-01T06:49:40.860Z,1.70
2022-09-01T06:52:08.109Z,2.03
2022-09-01T06:54:39.139Z,1.80
2022-09-01T06:59:54.035Z,1.95
2022-09-01T07:02:26.929Z,1.45
2022-09-01T07:04:54.275Z,1.50
2022-09-01T07:10:24.533Z,1.73
2022-09-01T07:13:06.639Z,1.80
2022-09-01T07:18:27.344Z,1.90
2022-09-01T07:21:38.784Z,2.00
2022-09-01T07:24:07.592Z,1.75
2022-09-01T07:26:30.647Z,1.45
2022-09-01T07:29:01.646Z,1.60
2022-09-01T07:34:46.234Z,1.27
2022-09-01T07:38:02.927Z,1.50
2022-09-01T07:45:30.163Z,1.40
2022-09-01T07:48:02.979Z,1.70
2022-09-01T07:53:36.017Z,1.85
2022-09-01T07:56:10.888Z,2.08
2022-09-01T07:58:40.172Z,1.60
2022-09-01T08:01:08.978Z,1.67
2022-09-01T08:03:36.082Z,1.70
2022-09-01T08:06:09.211Z,1.40
2022-09-01T08:08:39.743Z,1.70
2022-09-01T08:11:07.984Z,1.50
2022-09-01T08:13:41.656Z,1.52
2022-09-01T08:16:16.854Z,1.45
2022-09-01T08:18:49.544Z,1.33
2022-09-01T08:21:18.938Z,1.60
2022-09-01T08:23:45.646Z,1.17
2022-09-01T08:26:15.123Z,1.40
2022-09-01T08:28:45.999Z,1.27
2022-09-01T08:31:15.837Z,1.58
2022-09-01T08:33:43.407Z,1.35
2022-09-01T08:36:12.402Z,1.47
2022-09-01T08:38:39.927Z,1.30
2022-09-01T08:41:35.280Z,1.30
2022-09-01T08:44:29.258Z,1.30
2022-09-01T08:47:03.560Z,1.25
2022-09-01T08:49:31.044Z,1.50
2022-09-01T08:52:15.326Z,1.38
2022-09-01T08:55:02.645Z,1.60
2022-09-01T08:57:35.597Z,1.40
2022-09-01T09:00:04.435Z,1.20
2022-09-01T09:02:52.372Z,1.13
2022-09-01T09:05:50.737Z,1.98
2022-09-01T09:08:39.188Z,1.77
2022-09-01T09:11:27.443Z,1.52
2022-09-01T09:14:00.151Z,1.38
2022-09-01T09:16:43.154Z,1.40
2022-09-01T09:19:29.963Z,1.50
2022-09-01T09:21:59.391Z,2.05
2022-09-01T09:24:47.690Z,1.40
2022-09-01T09:27:26.907Z,1.55
2022-09-01T09:30:11.287Z,1.40
2022-09-01T09:35:48.969Z,1.65
2022-09-01T09:38:33.279Z,1.48
2022-09-01T09:41:26.931Z,1.50
2022-09-01T09:44:44.099Z,1.87
2022-09-01T09:47:43.156Z,1.15
2022-09-01T09:50:17.504Z,1.48
2022-09-01T09:52:46.756Z,1.35
2022-09-01T09:55:29.915Z,1.50
2022-09-01T09:58:01.935Z,1.50
2022-09-01T10:00:34.529Z,1.58
2022-09-01T10:03:08.689Z,1.50
2022-09-01T10:05:38.359Z,1.20
2022-09-01T10:08:09.307Z,1.45
2022-09-01T10:10:41.570Z,1.20
2022-09-01T10:13:13.802Z,1.33
2022-09-01T10:15:43.692Z,1.60
2022-09-01T10:18:21.828Z,1.85
2022-09-01T10:21:00.757Z,1.50
2022-09-01T10:23:31.202Z,1.30
2022-09-01T10:26:06.088Z,1.45
2022-09-01T10:28:37.174Z,1.88
2022-09-01T10:31:04.223Z,1.55
2022-09-01T10:33:30.929Z,1.80
2022-09-01T10:35:57.784Z,1.87
2022-09-01T10:38:27.160Z,1.90
2022-09-01T10:41:10.067Z,1.60
2022-09-01T10:43:43.809Z,1.83
2022-09-01T10:46:38.008Z,1.58
2022-09-01T10:49:27.713Z,1.70
2022-09-01T10:51:57.069Z,1.45
2022-09-01T10:54:45.237Z,2.13
2022-09-01T10:57:44.955Z,1.80
2022-09-01T11:00:36.681Z,2.10
2022-09-01T11:06:14.112Z,1.60
2022-09-01T11:08:55.903Z,2.10
2022-09-01T11:11:38.938Z,1.42
2022-09-01T11:14:22.853Z,1.50
2022-09-01T11:17:17.207Z,1.43
2022-09-01T11:19:58.310Z,1.60
2022-09-01T11:22:38.109Z,1.60
2022-09-01T11:25:39.462Z,1.80
2022-09-01T11:28:23.243Z,1.50
2022-09-01T11:30:56.374Z,1.57
2022-09-01T11:34:04.279Z,1.25
2022-09-01T11:36:44.665Z,1.80
2022-09-01T11:39:14.280Z,1.52
2022-09-01T11:42:09.305Z,1.55
2022-09-01T11:44:50.415Z,1.50
2022-09-01T11:47:19.638Z,1.55
2022-09-01T11:50:08.250Z,2.50
2022-09-01T11:52:37.752Z,1.52
2022-09-01T11:55:06.760Z,1.35
2022-09-01T11:57:36.507Z,1.73
2022-09-01T12:00:12.840Z,1.20
2022-09-01T12:02:48.701Z,1.55
2022-09-01T12:05:34.602Z,1.70
2022-09-01T12:08:14.257Z,2.10
2022-09-01T12:10:43.291Z,1.53
2022-09-01T12:13:19.718Z,1.48
2022-09-01T12:16:17.110Z,1.90
2022-09-01T12:18:48.125Z,1.88
2022-09-01T12:21:25.889Z,1.90
2022-09-01T12:23:52.932Z,1.57
2022-09-01T12:26:30.176Z,1.73
2022-09-01T12:28:57.297Z,1.42
2022-09-01T12:31:26.095Z,1.80
2022-09-01T12:33:55.238Z,2.03
2022-09-01T12:36:35.094Z,1.30
2022-09-01T12:39:22.533Z,1.63
2022-09-01T12:42:07.011Z,1.98
2022-09-01T12:44:39.737Z,1.48
2022-09-01T12:47:48.029Z,1.70
2022-09-01T12:50:16.530Z,2.07
2022-09-01T12:53:04.760Z,1.98
2022-09-01T12:55:50.302Z,1.50
2022-09-01T12:58:23.211Z,1.52
2022-09-01T13:00:59.048Z,1.95
2022-09-01T13:03:27.520Z,1.80
2022-09-01T13:05:57.990Z,2.00
2022-09-01T13:08:28.388Z,1.92
2022-09-01T13:10:58.999Z,2.08
2022-09-01T13:13:26.859Z,2.10
2022-09-01T13:15:59.907Z,2.57
2022-09-01T13:18:27.373Z,1.85
2022-09-01T13:20:55.191Z,2.15
2022-09-01T13:23:22.285Z,2.30
2022-09-01T13:25:54.320Z,2.15
2022-09-01T13:36:43.592Z,2.33
2022-09-01T13:39:12.600Z,2.28
2022-09-01T13:41:39.426Z,1.70
2022-09-01T13:44:06.084Z,2.40
2022-09-01T13:46:32.699Z,2.45
2022-09-01T13:49:03.000Z,1.90
2022-09-01T13:51:30.163Z,2.05
2022-09-01T13:53:56.797Z,2.33
2022-09-01T13:56:23.893Z,2.30
2022-09-01T13:58:50.864Z,2.10
2022-09-01T14:01:17.551Z,2.00
2022-09-01T14:03:44.196Z,2.33
2022-09-01T14:06:11.256Z,2.10
2022-09-01T14:08:37.884Z,2.00
2022-09-01T14:11:04.614Z,2.50
2022-09-01T14:13:32.360Z,2.55
2022-09-01T14:15:59.182Z,2.67
2022-09-01T14:18:32.760Z,1.93
2022-09-01T14:21:01.221Z,2.40
2022-09-01T14:23:28.254Z,2.75
2022-09-01T14:25:55.987Z,2.15
2022-09-01T14:28:23.252Z,2.33
2022-09-01T14:33:18.531Z,3.58
2022-09-01T14:35:47.812Z,2.97
2022-09-01T14:38:14.891Z,2.47
2022-09-01T14:40:43.403Z,3.00
2022-09-01T14:43:14.172Z,3.00
2022-09-01T14:45:44.428Z,2.40
2022-09-01T14:48:11.427Z,2.42
2022-09-01T14:50:41.177Z,2.55
2022-09-01T14:53:08.071Z,2.50
2022-09-01T14:55:34.695Z,2.00
2022-09-01T14:58:01.449Z,2.00
2022-09-01T15:00:30.068Z,3.35
2022-09-01T15:02:58.563Z,2.67
2022-09-01T15:05:25.676Z,2.17
2022-09-01T15:07:53.596Z,1.97
2022-09-01T15:10:25.304Z,2.67
2022-09-01T15:12:54.287Z,3.03
2022-09-01T15:15:20.933Z,2.40
2022-09-01T15:27:08.827Z,3.28
2022-09-01T15:30:28.942Z,2.60
2022-09-01T15:33:40.403Z,2.58
2022-09-01T15:36:07.663Z,1.95
2022-09-01T15:38:37.359Z,2.87
2022-09-01T15:41:11.213Z,2.28
2022-09-01T15:49:34.398Z,2.53
2022-09-01T15:52:22.680Z,2.03
2022-09-01T15:54:52.381Z,3.80
2022-09-01T15:57:22.839Z,2.55
2022-09-01T16:03:22.415Z,3.00
2022-09-01T16:05:53.272Z,2.37
2022-09-01T16:08:41.935Z,2.25
2022-09-01T16:13:54.849Z,2.13
2022-09-01T16:16:57.816Z,1.98
2022-09-01T16:20:05.628Z,1.80
2022-09-01T16:26:21.251Z,1.98
2022-09-01T16:28:57.746Z,2.38
2022-09-01T16:31:35.757Z,2.97
2022-09-01T16:34:17.439Z,1.63
2022-09-01T16:37:15.589Z,1.60
2022-09-01T16:40:10.359Z,2.22
2022-09-01T16:42:56.023Z,1.92
2022-09-01T16:45:52.857Z,2.00
2022-09-01T16:48:33.890Z,2.80
2022-09-01T16:51:06.523Z,2.17
2022-09-01T16:54:01.485Z,2.78
2022-09-01T16:56:35.267Z,2.72
2022-09-01T16:59:17.073Z,2.60
2022-09-01T17:02:00.983Z,2.70
2022-09-01T17:04:47.457Z,2.88
2022-09-01T17:07:24.252Z,2.45
2022-09-01T17:10:17.009Z,2.13
2022-09-01T17:12:51.821Z,2.15
2022-09-01T17:15:38.073Z,2.13
2022-09-01T17:18:28.724Z,2.08
2022-09-01T17:21:02.789Z,2.17
2022-09-01T17:23:40.409Z,2.20
2022-09-01T17:26:21.245Z,2.25
2022-09-01T17:28:55.268Z,1.90
2022-09-01T17:31:31.993Z,2.38
2022-09-01T17:34:38.998Z,2.45
2022-09-01T17:37:21.813Z,1.98
2022-09-01T17:40:03.549Z,2.47
2022-09-01T17:42:42.096Z,1.97
2022-09-01T17:45:13.017Z,1.70
2022-09-01T17:48:37.449Z,2.30
2022-09-01T17:51:19.617Z,1.67
2022-09-01T17:54:07.142Z,2.03
2022-09-01T17:57:09.287Z,2.23
2022-09-01T17:59:55.333Z,2.00
2022-09-01T18:03:02.832Z,2.42
2022-09-01T18:05:42.917Z,1.65
2022-09-01T18:08:38.525Z,2.05
2022-09-01T18:11:34.855Z,2.07
2022-09-01T18:14:07.214Z,2.67
2022-09-01T18:17:02.268Z,2.42
2022-09-01T18:20:03.249Z,2.42
2022-09-01T18:22:37.709Z,2.08
2022-09-01T18:25:09.098Z,1.97
2022-09-01T18:27:36.705Z,2.22
2022-09-01T18:30:05.192Z,2.00
2022-09-01T18:33:04.281Z,1.52
2022-09-01T18:36:08.928Z,1.95
2022-09-01T18:38:51.349Z,1.80
2022-09-01T18:41:55.114Z,1.98
2022-09-01T18:44:55.052Z,1.92
2022-09-01T18:47:30.600Z,1.85
2022-09-01T18:50:22.334Z,2.20
2022-09-01T18:52:58.429Z,1.87
2022-09-01T18:56:02.107Z,1.60
2022-09-01T18:58:35.434Z,2.03
2022-09-01T19:01:12.584Z,2.00
2022-09-01T19:03:52.136Z,2.13
2022-09-01T19:06:46.744Z,1.77
2022-09-01T19:09:19.047Z,1.92
2022-09-01T19:12:06.980Z,1.77
2022-09-01T19:15:07.455Z,1.92
2022-09-01T19:17:49.062Z,1.83
2022-09-01T19:20:24.254Z,2.10
2022-09-01T19:23:14.948Z,1.77
2022-09-01T19:25:42.931Z,2.10
2022-09-01T19:31:42.955Z,2.25
2022-09-01T19:34:14.664Z,1.90
2022-09-01T19:36:54.764Z,1.67
2022-09-01T19:39:28.104Z,1.58
2022-09-01T19:46:25.321Z,2.17
2022-09-01T19:49:13.438Z,1.73
2022-09-01T19:52:47.915Z,1.83
2022-09-01T20:03:32.477Z,2.05
2022-09-01T20:06:06.031Z,1.70
2022-09-01T20:08:49.181Z,2.28
2022-09-01T20:11:21.001Z,1.73
2022-09-01T20:14:12.098Z,1.70
2022-09-01T20:16:48.569Z,1.77
2022-09-01T20:19:45.607Z,1.83
2022-09-01T20:22:31.091Z,1.80
2022-09-01T20:25:10.510Z,2.03
2022-09-01T20:28:02.858Z,1.58
2022-09-01T20:30:42.680Z,2.00
2022-09-01T20:33:12.307Z,1.60
2022-09-01T20:35:59.975Z,1.48
2022-09-01T20:38:57.323Z,1.50
2022-09-01T20:41:49.135Z,1.42
2022-09-01T20:44:31.099Z,1.23
2022-09-01T20:46:57.896Z,1.30
2022-09-01T20:49:24.515Z,1.83
2022-09-01T20:52:02.420Z,1.90
2022-09-01T20:54:52.342Z,1.45
2022-09-01T20:57:24.505Z,1.48
2022-09-01T20:59:58.318Z,1.23
2022-09-01T21:02:35.654Z,1.40
2022-09-01T21:05:31.994Z,1.55
2022-09-01T21:08:17.878Z,1.50
2022-09-01T21:10:53.613Z,1.30
2022-09-01T21:13:47.294Z,1.40
2022-09-01T21:16:42.192Z,1.60
2022-09-01T21:19:23.992Z,1.60
2022-09-01T21:22:03.900Z,1.60
2022-09-01T21:24:30.551Z,1.40
2022-09-01T21:26:59.337Z,1.13
2022-09-01T21:30:01.506Z,1.15
2022-09-01T21:32:29.535Z,1.42
2022-09-01T21:34:56.693Z,1.48
2022-09-01T21:37:25.033Z,1.40
2022-09-01T21:39:53.068Z,1.77
2022-09-01T21:42:25.150Z,1.50
2022-09-01T21:44:54.403Z,1.45
2022-09-01T21:47:21.628Z,1.48
2022-09-01T21:49:48.411Z,1.40
2022-09-01T21:52:15.090Z,1.30
2022-09-01T21:54:41.750Z,1.45
2022-09-01T21:57:08.340Z,1.45
2022-09-01T21:59:35.168Z,1.33
2022-09-01T22:02:02.008Z,1.60
2022-09-01T22:04:28.619Z,1.00
2022-09-01T22:06:55.228Z,1.27
2022-09-01T22:09:21.929Z,1.50
2022-09-01T22:11:50.910Z,1.10
2022-09-01T22:14:19.216Z,1.60
2022-09-01T22:16:46.476Z,1.47
2022-09-01T22:19:13.296Z,1.20
2022-09-01T22:21:41.391Z,1.40
2022-09-01T22:24:08.645Z,1.30
2022-09-01T22:26:36.016Z,1.30
2022-09-01T22:29:06.381Z,1.40
2022-09-01T22:31:36.474Z,1.02
2022-09-01T22:34:03.371Z,1.20
2022-09-01T22:36:33.736Z,1.20
2022-09-01T22:39:00.970Z,1.30
2022-09-01T22:41:30.116Z,1.20
2022-09-01T22:43:59.270Z,1.08
2022-09-01T22:46:27.299Z,1.48
2022-09-01T22:48:56.516Z,1.15
2022-09-01T22:51:23.616Z,1.17
2022-09-01T22:53:50.493Z,1.40
2022-09-01T22:56:24.131Z,1.33
2022-09-01T22:58:54.864Z,1.33
2022-09-01T23:01:24.521Z,1.40
2022-09-01T23:03:52.207Z,1.48
2022-09-01T23:06:28.119Z,1.40
2022-09-01T23:08:57.094Z,1.15
2022-09-01T23:11:23.927Z,1.25
2022-09-01T23:13:50.778Z,1.15
2022-09-01T23:16:20.022Z,1.10
2022-09-01T23:18:48.506Z,1.30
2022-09-01T23:21:18.620Z,0.98
2022-09-01T23:23:45.471Z,1.02
2022-09-01T23:26:14.380Z,1.10
2022-09-01T23:28:42.133Z,1.20
2022-09-01T23:31:16.608Z,1.40
2022-09-01T23:33:44.008Z,1.10
2022-09-01T23:36:12.924Z,1.15
2022-09-01T23:38:41.238Z,1.17
2022-09-01T23:41:14.071Z,1.20
2022-09-01T23:43:41.022Z,1.17
2022-09-01T23:46:15.677Z,1.40
2022-09-01T23:48:42.336Z,1.20
2022-09-01T23:51:10.515Z,1.10
2022-09-01T23:53:38.788Z,1.13
2022-09-01T23:56:14.848Z,0.90
2022-09-01T23:58:42.159Z,1.10
